sensor_id;sensor_type;location;lat;lon;timestamp;P1;durP1;ratioP1;P2;durP2;ratioP2
75847;SDS011;65750;47.540;19.090;2023-02-28T00:01:39;8.45;;;4.28;;
75847;SDS011;65750;47.540;19.090;2023-02-28T00:04:06;8.50;;;4.20;;
75847;SDS011;65750;47.540;19.090;2023-02-28T00:06:36;8.13;;;4.22;;
75847;SDS011;65750;47.540;19.090;2023-02-28T00:09:03;7.90;;;4.18;;
75847;SDS011;65750;47.540;19.090;2023-02-28T00:11:30;8.23;;;4.17;;
75847;SDS011;65750;47.540;19.090;2023-02-28T00:13:57;7.45;;;4.07;;
75847;SDS011;65750;47.540;19.090;2023-02-28T00:16:25;6.70;;;3.72;;
75847;SDS011;65750;47.540;19.090;2023-02-28T00:18:52;8.48;;;4.28;;
75847;SDS011;65750;47.540;19.090;2023-02-28T00:21:19;8.55;;;4.50;;
75847;SDS011;65750;47.540;19.090;2023-02-28T00:23:48;9.40;;;3.83;;
75847;SDS011;65750;47.540;19.090;2023-02-28T00:26:15;6.85;;;4.25;;
75847;SDS011;65750;47.540;19.090;2023-02-28T00:28:43;7.93;;;3.80;;
75847;SDS011;65750;47.540;19.090;2023-02-28T00:31:10;7.15;;;3.70;;
75847;SDS011;65750;47.540;19.090;2023-02-28T00:33:37;8.07;;;4.12;;
75847;SDS011;65750;47.540;19.090;2023-02-28T00:36:06;6.10;;;3.87;;
75847;SDS011;65750;47.540;19.090;2023-02-28T00:38:35;6.57;;;4.00;;
75847;SDS011;65750;47.540;19.090;2023-02-28T00:41:04;7.93;;;3.90;;
75847;SDS011;65750;47.540;19.090;2023-02-28T00:43:31;7.60;;;3.75;;
75847;SDS011;65750;47.540;19.090;2023-02-28T00:45:59;6.78;;;4.18;;
75847;SDS011;65750;47.540;19.090;2023-02-28T00:48:26;5.87;;;3.90;;
75847;SDS011;65750;47.540;19.090;2023-02-28T00:50:54;7.10;;;3.87;;
75847;SDS011;65750;47.540;19.090;2023-02-28T00:53:21;6.97;;;3.95;;
75847;SDS011;65750;47.540;19.090;2023-02-28T00:55:48;7.87;;;3.90;;
75847;SDS011;65750;47.540;19.090;2023-02-28T00:58:17;7.35;;;4.05;;
75847;SDS011;65750;47.540;19.090;2023-02-28T01:00:44;7.30;;;4.10;;
75847;SDS011;65750;47.540;19.090;2023-02-28T01:03:14;6.72;;;3.90;;
75847;SDS011;65750;47.540;19.090;2023-02-28T01:05:42;6.93;;;3.67;;
75847;SDS011;65750;47.540;19.090;2023-02-28T01:08:09;7.90;;;4.30;;
75847;SDS011;65750;47.540;19.090;2023-02-28T01:10:37;6.78;;;4.12;;
75847;SDS011;65750;47.540;19.090;2023-02-28T01:13:04;6.90;;;3.70;;
75847;SDS011;65750;47.540;19.090;2023-02-28T01:15:33;7.18;;;3.78;;
75847;SDS011;65750;47.540;19.090;2023-02-28T01:18:00;6.47;;;3.97;;
75847;SDS011;65750;47.540;19.090;2023-02-28T01:20:30;8.90;;;4.43;;
75847;SDS011;65750;47.540;19.090;2023-02-28T01:22:57;9.35;;;4.53;;
75847;SDS011;65750;47.540;19.090;2023-02-28T01:25:24;7.97;;;3.90;;
75847;SDS011;65750;47.540;19.090;2023-02-28T01:27:51;8.55;;;4.00;;
75847;SDS011;65750;47.540;19.090;2023-02-28T01:30:19;7.37;;;3.65;;
75847;SDS011;65750;47.540;19.090;2023-02-28T01:32:47;7.05;;;3.85;;
75847;SDS011;65750;47.540;19.090;2023-02-28T01:35:17;7.78;;;3.95;;
75847;SDS011;65750;47.540;19.090;2023-02-28T01:37:44;7.87;;;3.87;;
75847;SDS011;65750;47.540;19.090;2023-02-28T01:40:12;8.43;;;4.28;;
75847;SDS011;65750;47.540;19.090;2023-02-28T01:42:40;6.28;;;3.60;;
75847;SDS011;65750;47.540;19.090;2023-02-28T01:45:16;7.62;;;4.32;;
75847;SDS011;65750;47.540;19.090;2023-02-28T01:47:47;7.28;;;4.03;;
75847;SDS011;65750;47.540;19.090;2023-02-28T01:50:16;5.80;;;3.70;;
75847;SDS011;65750;47.540;19.090;2023-02-28T01:52:46;7.50;;;3.85;;
75847;SDS011;65750;47.540;19.090;2023-02-28T01:55:13;7.12;;;4.10;;
75847;SDS011;65750;47.540;19.090;2023-02-28T01:57:42;6.93;;;3.70;;
75847;SDS011;65750;47.540;19.090;2023-02-28T02:00:15;7.60;;;4.78;;
75847;SDS011;65750;47.540;19.090;2023-02-28T02:02:46;7.13;;;4.10;;
75847;SDS011;65750;47.540;19.090;2023-02-28T02:05:19;7.00;;;4.00;;
75847;SDS011;65750;47.540;19.090;2023-02-28T02:07:48;6.35;;;4.30;;
75847;SDS011;65750;47.540;19.090;2023-02-28T02:10:18;7.85;;;4.10;;
75847;SDS011;65750;47.540;19.090;2023-02-28T02:15:39;7.40;;;4.30;;
75847;SDS011;65750;47.540;19.090;2023-02-28T02:18:11;7.03;;;4.20;;
75847;SDS011;65750;47.540;19.090;2023-02-28T02:20:51;7.10;;;4.03;;
75847;SDS011;65750;47.540;19.090;2023-02-28T02:23:55;7.18;;;3.90;;
75847;SDS011;65750;47.540;19.090;2023-02-28T02:27:05;7.50;;;4.50;;
75847;SDS011;65750;47.540;19.090;2023-02-28T02:29:47;7.20;;;4.07;;
75847;SDS011;65750;47.540;19.090;2023-02-28T02:32:45;6.68;;;4.28;;
75847;SDS011;65750;47.540;19.090;2023-02-28T02:35:23;6.95;;;4.03;;
75847;SDS011;65750;47.540;19.090;2023-02-28T02:37:52;6.18;;;3.95;;
75847;SDS011;65750;47.540;19.090;2023-02-28T02:40:23;6.93;;;4.20;;
75847;SDS011;65750;47.540;19.090;2023-02-28T02:42:55;6.43;;;4.17;;
75847;SDS011;65750;47.540;19.090;2023-02-28T02:45:24;7.95;;;4.62;;
75847;SDS011;65750;47.540;19.090;2023-02-28T02:47:53;6.90;;;4.07;;
75847;SDS011;65750;47.540;19.090;2023-02-28T02:50:24;6.28;;;3.92;;
75847;SDS011;65750;47.540;19.090;2023-02-28T02:52:57;6.53;;;4.00;;
75847;SDS011;65750;47.540;19.090;2023-02-28T02:55:27;8.30;;;4.23;;
75847;SDS011;65750;47.540;19.090;2023-02-28T02:57:56;7.93;;;4.10;;
75847;SDS011;65750;47.540;19.090;2023-02-28T03:00:26;7.22;;;4.10;;
75847;SDS011;65750;47.540;19.090;2023-02-28T03:02:56;7.05;;;4.18;;
75847;SDS011;65750;47.540;19.090;2023-02-28T03:05:25;7.05;;;3.83;;
75847;SDS011;65750;47.540;19.090;2023-02-28T03:07:54;6.10;;;3.80;;
75847;SDS011;65750;47.540;19.090;2023-02-28T03:10:25;6.22;;;3.85;;
75847;SDS011;65750;47.540;19.090;2023-02-28T03:13:00;7.10;;;4.22;;
75847;SDS011;65750;47.540;19.090;2023-02-28T03:15:36;6.55;;;3.97;;
75847;SDS011;65750;47.540;19.090;2023-02-28T03:18:10;6.32;;;3.90;;
75847;SDS011;65750;47.540;19.090;2023-02-28T03:20:44;6.70;;;3.80;;
75847;SDS011;65750;47.540;19.090;2023-02-28T03:23:19;6.55;;;3.70;;
75847;SDS011;65750;47.540;19.090;2023-02-28T03:25:52;6.82;;;4.20;;
75847;SDS011;65750;47.540;19.090;2023-02-28T03:28:26;6.97;;;4.00;;
75847;SDS011;65750;47.540;19.090;2023-02-28T03:30:59;6.10;;;4.00;;
75847;SDS011;65750;47.540;19.090;2023-02-28T03:33:30;6.80;;;4.03;;
75847;SDS011;65750;47.540;19.090;2023-02-28T03:36:01;6.70;;;3.95;;
75847;SDS011;65750;47.540;19.090;2023-02-28T03:38:30;7.15;;;4.03;;
75847;SDS011;65750;47.540;19.090;2023-02-28T03:41:01;7.10;;;4.10;;
75847;SDS011;65750;47.540;19.090;2023-02-28T03:43:34;6.80;;;3.80;;
75847;SDS011;65750;47.540;19.090;2023-02-28T03:46:04;7.40;;;4.33;;
75847;SDS011;65750;47.540;19.090;2023-02-28T03:48:35;6.85;;;4.12;;
75847;SDS011;65750;47.540;19.090;2023-02-28T03:51:06;7.70;;;3.80;;
75847;SDS011;65750;47.540;19.090;2023-02-28T03:53:36;6.12;;;3.65;;
75847;SDS011;65750;47.540;19.090;2023-02-28T03:56:06;5.40;;;3.72;;
75847;SDS011;65750;47.540;19.090;2023-02-28T03:58:37;6.73;;;4.13;;
75847;SDS011;65750;47.540;19.090;2023-02-28T04:01:09;10.07;;;5.47;;
75847;SDS011;65750;47.540;19.090;2023-02-28T04:03:39;6.87;;;3.92;;
75847;SDS011;65750;47.540;19.090;2023-02-28T04:06:08;5.87;;;3.60;;
75847;SDS011;65750;47.540;19.090;2023-02-28T04:08:41;5.97;;;3.65;;
75847;SDS011;65750;47.540;19.090;2023-02-28T04:11:11;6.30;;;3.70;;
75847;SDS011;65750;47.540;19.090;2023-02-28T04:13:44;7.22;;;4.22;;
75847;SDS011;65750;47.540;19.090;2023-02-28T04:16:11;7.28;;;4.18;;
75847;SDS011;65750;47.540;19.090;2023-02-28T04:18:38;5.95;;;4.03;;
75847;SDS011;65750;47.540;19.090;2023-02-28T04:21:05;6.65;;;4.00;;
75847;SDS011;65750;47.540;19.090;2023-02-28T04:23:34;6.20;;;3.80;;
75847;SDS011;65750;47.540;19.090;2023-02-28T04:26:01;6.75;;;3.72;;
75847;SDS011;65750;47.540;19.090;2023-02-28T04:28:29;6.22;;;3.92;;
75847;SDS011;65750;47.540;19.090;2023-02-28T04:30:56;6.87;;;4.00;;
75847;SDS011;65750;47.540;19.090;2023-02-28T04:33:24;7.68;;;4.35;;
75847;SDS011;65750;47.540;19.090;2023-02-28T04:35:57;6.40;;;4.30;;
75847;SDS011;65750;47.540;19.090;2023-02-28T04:38:26;6.85;;;3.80;;
75847;SDS011;65750;47.540;19.090;2023-02-28T04:40:53;7.40;;;4.07;;
75847;SDS011;65750;47.540;19.090;2023-02-28T04:43:23;6.22;;;3.92;;
75847;SDS011;65750;47.540;19.090;2023-02-28T04:45:50;6.30;;;3.90;;
75847;SDS011;65750;47.540;19.090;2023-02-28T04:48:18;6.90;;;4.03;;
75847;SDS011;65750;47.540;19.090;2023-02-28T04:50:45;6.53;;;3.72;;
75847;SDS011;65750;47.540;19.090;2023-02-28T04:53:12;5.97;;;3.78;;
75847;SDS011;65750;47.540;19.090;2023-02-28T04:55:40;5.78;;;3.90;;
75847;SDS011;65750;47.540;19.090;2023-02-28T04:58:07;6.35;;;3.83;;
75847;SDS011;65750;47.540;19.090;2023-02-28T05:00:34;6.13;;;3.97;;
75847;SDS011;65750;47.540;19.090;2023-02-28T05:03:02;6.00;;;3.65;;
75847;SDS011;65750;47.540;19.090;2023-02-28T05:05:29;6.68;;;3.97;;
75847;SDS011;65750;47.540;19.090;2023-02-28T05:07:56;6.28;;;4.25;;
75847;SDS011;65750;47.540;19.090;2023-02-28T05:10:24;7.85;;;3.78;;
75847;SDS011;65750;47.540;19.090;2023-02-28T05:12:52;6.60;;;3.90;;
75847;SDS011;65750;47.540;19.090;2023-02-28T05:15:19;6.70;;;3.90;;
75847;SDS011;65750;47.540;19.090;2023-02-28T05:17:47;7.65;;;4.05;;
75847;SDS011;65750;47.540;19.090;2023-02-28T05:20:14;6.75;;;3.90;;
75847;SDS011;65750;47.540;19.090;2023-02-28T05:22:41;5.65;;;3.58;;
75847;SDS011;65750;47.540;19.090;2023-02-28T05:25:10;5.73;;;3.73;;
75847;SDS011;65750;47.540;19.090;2023-02-28T05:27:37;5.97;;;3.70;;
75847;SDS011;65750;47.540;19.090;2023-02-28T05:30:07;6.20;;;3.70;;
75847;SDS011;65750;47.540;19.090;2023-02-28T05:32:36;6.37;;;3.78;;
75847;SDS011;65750;47.540;19.090;2023-02-28T05:35:03;5.93;;;3.90;;
75847;SDS011;65750;47.540;19.090;2023-02-28T05:37:31;6.17;;;3.50;;
75847;SDS011;65750;47.540;19.090;2023-02-28T05:39:59;6.18;;;3.90;;
75847;SDS011;65750;47.540;19.090;2023-02-28T05:42:26;5.93;;;3.80;;
75847;SDS011;65750;47.540;19.090;2023-02-28T05:44:53;5.35;;;3.50;;
75847;SDS011;65750;47.540;19.090;2023-02-28T05:47:22;6.82;;;3.17;;
75847;SDS011;65750;47.540;19.090;2023-02-28T05:49:49;6.33;;;3.67;;
75847;SDS011;65750;47.540;19.090;2023-02-28T05:52:17;6.30;;;3.95;;
75847;SDS011;65750;47.540;19.090;2023-02-28T05:54:45;6.32;;;3.60;;
75847;SDS011;65750;47.540;19.090;2023-02-28T05:57:13;5.95;;;3.65;;
75847;SDS011;65750;47.540;19.090;2023-02-28T05:59:40;6.70;;;4.00;;
75847;SDS011;65750;47.540;19.090;2023-02-28T06:02:08;6.33;;;3.73;;
75847;SDS011;65750;47.540;19.090;2023-02-28T06:04:39;7.22;;;3.60;;
75847;SDS011;65750;47.540;19.090;2023-02-28T06:07:07;7.62;;;3.70;;
75847;SDS011;65750;47.540;19.090;2023-02-28T06:09:34;6.78;;;3.62;;
75847;SDS011;65750;47.540;19.090;2023-02-28T06:12:02;10.27;;;3.60;;
75847;SDS011;65750;47.540;19.090;2023-02-28T06:14:31;5.93;;;3.77;;
75847;SDS011;65750;47.540;19.090;2023-02-28T06:16:59;5.60;;;3.80;;
75847;SDS011;65750;47.540;19.090;2023-02-28T06:19:27;6.40;;;3.80;;
75847;SDS011;65750;47.540;19.090;2023-02-28T06:21:57;6.20;;;3.85;;
75847;SDS011;65750;47.540;19.090;2023-02-28T06:24:25;6.20;;;3.92;;
75847;SDS011;65750;47.540;19.090;2023-02-28T06:26:53;6.10;;;3.80;;
75847;SDS011;65750;47.540;19.090;2023-02-28T06:29:20;5.53;;;3.28;;
75847;SDS011;65750;47.540;19.090;2023-02-28T06:31:47;5.70;;;3.70;;
75847;SDS011;65750;47.540;19.090;2023-02-28T06:34:16;6.37;;;3.87;;
75847;SDS011;65750;47.540;19.090;2023-02-28T06:36:43;6.65;;;4.03;;
75847;SDS011;65750;47.540;19.090;2023-02-28T06:39:11;6.27;;;3.93;;
75847;SDS011;65750;47.540;19.090;2023-02-28T06:41:39;6.03;;;3.70;;
75847;SDS011;65750;47.540;19.090;2023-02-28T06:44:10;5.90;;;3.40;;
75847;SDS011;65750;47.540;19.090;2023-02-28T06:46:39;6.50;;;3.70;;
75847;SDS011;65750;47.540;19.090;2023-02-28T06:49:06;5.47;;;3.72;;
75847;SDS011;65750;47.540;19.090;2023-02-28T06:51:35;6.00;;;3.90;;
75847;SDS011;65750;47.540;19.090;2023-02-28T06:54:03;6.35;;;3.70;;
75847;SDS011;65750;47.540;19.090;2023-02-28T06:56:32;5.65;;;3.30;;
75847;SDS011;65750;47.540;19.090;2023-02-28T06:58:59;6.62;;;3.75;;
75847;SDS011;65750;47.540;19.090;2023-02-28T07:01:26;8.73;;;4.28;;
75847;SDS011;65750;47.540;19.090;2023-02-28T07:03:54;10.03;;;4.43;;
75847;SDS011;65750;47.540;19.090;2023-02-28T07:06:21;9.35;;;4.10;;
75847;SDS011;65750;47.540;19.090;2023-02-28T07:08:49;9.45;;;3.87;;
75847;SDS011;65750;47.540;19.090;2023-02-28T07:11:17;9.70;;;4.20;;
75847;SDS011;65750;47.540;19.090;2023-02-28T07:13:46;7.00;;;4.10;;
75847;SDS011;65750;47.540;19.090;2023-02-28T07:16:13;9.07;;;4.17;;
75847;SDS011;65750;47.540;19.090;2023-02-28T07:18:40;9.98;;;4.55;;
75847;SDS011;65750;47.540;19.090;2023-02-28T07:21:08;10.52;;;4.28;;
75847;SDS011;65750;47.540;19.090;2023-02-28T07:23:36;9.63;;;4.18;;
75847;SDS011;65750;47.540;19.090;2023-02-28T07:26:04;15.15;;;4.60;;
75847;SDS011;65750;47.540;19.090;2023-02-28T07:28:32;21.00;;;7.07;;
75847;SDS011;65750;47.540;19.090;2023-02-28T07:31:04;25.08;;;8.23;;
75847;SDS011;65750;47.540;19.090;2023-02-28T07:33:32;24.00;;;6.87;;
75847;SDS011;65750;47.540;19.090;2023-02-28T07:36:00;22.62;;;7.35;;
75847;SDS011;65750;47.540;19.090;2023-02-28T07:38:27;22.13;;;7.03;;
75847;SDS011;65750;47.540;19.090;2023-02-28T07:40:54;22.57;;;7.00;;
75847;SDS011;65750;47.540;19.090;2023-02-28T07:43:22;21.92;;;6.93;;
75847;SDS011;65750;47.540;19.090;2023-02-28T07:45:49;22.27;;;5.97;;
75847;SDS011;65750;47.540;19.090;2023-02-28T07:48:18;20.58;;;6.75;;
75847;SDS011;65750;47.540;19.090;2023-02-28T07:50:45;22.10;;;6.90;;
75847;SDS011;65750;47.540;19.090;2023-02-28T07:53:21;18.73;;;6.50;;
75847;SDS011;65750;47.540;19.090;2023-02-28T07:55:49;16.42;;;6.35;;
75847;SDS011;65750;47.540;19.090;2023-02-28T07:58:16;17.60;;;6.10;;
75847;SDS011;65750;47.540;19.090;2023-02-28T08:00:43;17.05;;;6.35;;
75847;SDS011;65750;47.540;19.090;2023-02-28T08:03:11;20.65;;;6.43;;
75847;SDS011;65750;47.540;19.090;2023-02-28T08:05:40;17.50;;;5.53;;
75847;SDS011;65750;47.540;19.090;2023-02-28T08:08:07;15.60;;;6.03;;
75847;SDS011;65750;47.540;19.090;2023-02-28T08:10:34;19.77;;;6.87;;
75847;SDS011;65750;47.540;19.090;2023-02-28T08:13:03;14.50;;;5.68;;
75847;SDS011;65750;47.540;19.090;2023-02-28T08:15:30;18.35;;;6.35;;
75847;SDS011;65750;47.540;19.090;2023-02-28T08:17:57;18.33;;;6.00;;
75847;SDS011;65750;47.540;19.090;2023-02-28T08:20:24;16.05;;;5.28;;
75847;SDS011;65750;47.540;19.090;2023-02-28T08:22:53;18.62;;;6.22;;
75847;SDS011;65750;47.540;19.090;2023-02-28T08:25:21;18.17;;;5.78;;
75847;SDS011;65750;47.540;19.090;2023-02-28T08:27:50;19.87;;;6.03;;
75847;SDS011;65750;47.540;19.090;2023-02-28T08:30:17;10.63;;;5.70;;
75847;SDS011;65750;47.540;19.090;2023-02-28T08:32:44;8.10;;;5.18;;
75847;SDS011;65750;47.540;19.090;2023-02-28T08:35:11;8.50;;;4.90;;
75847;SDS011;65750;47.540;19.090;2023-02-28T08:37:38;11.75;;;5.22;;
75847;SDS011;65750;47.540;19.090;2023-02-28T08:40:08;8.50;;;4.45;;
75847;SDS011;65750;47.540;19.090;2023-02-28T08:42:36;6.93;;;3.60;;
75847;SDS011;65750;47.540;19.090;2023-02-28T08:45:03;7.75;;;3.45;;
75847;SDS011;65750;47.540;19.090;2023-02-28T08:47:31;9.18;;;3.28;;
75847;SDS011;65750;47.540;19.090;2023-02-28T08:49:58;8.13;;;2.90;;
75847;SDS011;65750;47.540;19.090;2023-02-28T08:52:25;7.25;;;3.20;;
75847;SDS011;65750;47.540;19.090;2023-02-28T08:54:53;6.70;;;3.00;;
75847;SDS011;65750;47.540;19.090;2023-02-28T08:57:21;8.15;;;2.80;;
75847;SDS011;65750;47.540;19.090;2023-02-28T08:59:48;6.53;;;3.10;;
75847;SDS011;65750;47.540;19.090;2023-02-28T09:02:17;6.68;;;2.90;;
75847;SDS011;65750;47.540;19.090;2023-02-28T09:04:44;6.35;;;2.90;;
75847;SDS011;65750;47.540;19.090;2023-02-28T09:07:11;6.13;;;2.87;;
75847;SDS011;65750;47.540;19.090;2023-02-28T09:09:39;5.22;;;2.87;;
75847;SDS011;65750;47.540;19.090;2023-02-28T09:12:19;6.62;;;2.70;;
75847;SDS011;65750;47.540;19.090;2023-02-28T09:14:47;6.22;;;2.58;;
75847;SDS011;65750;47.540;19.090;2023-02-28T09:17:15;6.30;;;2.72;;
75847;SDS011;65750;47.540;19.090;2023-02-28T09:19:42;5.80;;;2.80;;
75847;SDS011;65750;47.540;19.090;2023-02-28T09:22:09;6.22;;;3.20;;
75847;SDS011;65750;47.540;19.090;2023-02-28T09:24:37;4.62;;;2.62;;
75847;SDS011;65750;47.540;19.090;2023-02-28T09:27:04;6.53;;;2.78;;
75847;SDS011;65750;47.540;19.090;2023-02-28T09:29:32;5.35;;;2.50;;
75847;SDS011;65750;47.540;19.090;2023-02-28T09:32:01;5.07;;;2.63;;
75847;SDS011;65750;47.540;19.090;2023-02-28T09:34:31;4.95;;;2.90;;
75847;SDS011;65750;47.540;19.090;2023-02-28T09:36:58;6.95;;;2.90;;
75847;SDS011;65750;47.540;19.090;2023-02-28T09:39:26;6.20;;;2.65;;
75847;SDS011;65750;47.540;19.090;2023-02-28T09:41:54;5.60;;;2.78;;
75847;SDS011;65750;47.540;19.090;2023-02-28T09:44:26;5.73;;;2.73;;
75847;SDS011;65750;47.540;19.090;2023-02-28T09:46:55;6.53;;;2.97;;
75847;SDS011;65750;47.540;19.090;2023-02-28T09:49:33;5.18;;;2.80;;
75847;SDS011;65750;47.540;19.090;2023-02-28T09:52:03;5.75;;;2.55;;
75847;SDS011;65750;47.540;19.090;2023-02-28T09:54:34;6.78;;;3.00;;
75847;SDS011;65750;47.540;19.090;2023-02-28T09:57:07;6.23;;;2.87;;
75847;SDS011;65750;47.540;19.090;2023-02-28T09:59:39;5.22;;;2.30;;
75847;SDS011;65750;47.540;19.090;2023-02-28T10:02:20;4.93;;;2.55;;
75847;SDS011;65750;47.540;19.090;2023-02-28T10:05:06;5.07;;;2.85;;
75847;SDS011;65750;47.540;19.090;2023-02-28T10:07:38;5.03;;;2.58;;
75847;SDS011;65750;47.540;19.090;2023-02-28T10:10:16;4.77;;;2.27;;
75847;SDS011;65750;47.540;19.090;2023-02-28T10:12:47;4.80;;;2.55;;
75847;SDS011;65750;47.540;19.090;2023-02-28T10:15:15;4.65;;;2.37;;
75847;SDS011;65750;47.540;19.090;2023-02-28T10:17:44;5.90;;;2.78;;
75847;SDS011;65750;47.540;19.090;2023-02-28T10:20:15;5.00;;;2.28;;
75847;SDS011;65750;47.540;19.090;2023-02-28T10:22:51;6.43;;;3.00;;
75847;SDS011;65750;47.540;19.090;2023-02-28T10:25:21;4.35;;;2.40;;
75847;SDS011;65750;47.540;19.090;2023-02-28T10:27:50;4.30;;;2.10;;
75847;SDS011;65750;47.540;19.090;2023-02-28T10:30:19;5.60;;;2.50;;
75847;SDS011;65750;47.540;19.090;2023-02-28T10:32:47;5.85;;;2.30;;
75847;SDS011;65750;47.540;19.090;2023-02-28T10:35:21;8.40;;;2.73;;
75847;SDS011;65750;47.540;19.090;2023-02-28T10:37:49;5.57;;;2.35;;
75847;SDS011;65750;47.540;19.090;2023-02-28T10:40:26;5.12;;;2.35;;
75847;SDS011;65750;47.540;19.090;2023-02-28T10:42:57;7.28;;;3.28;;
75847;SDS011;65750;47.540;19.090;2023-02-28T10:45:25;6.10;;;2.80;;
75847;SDS011;65750;47.540;19.090;2023-02-28T10:47:54;4.20;;;2.47;;
75847;SDS011;65750;47.540;19.090;2023-02-28T10:50:27;4.53;;;2.30;;
75847;SDS011;65750;47.540;19.090;2023-02-28T10:53:00;4.93;;;1.90;;
75847;SDS011;65750;47.540;19.090;2023-02-28T10:55:35;4.45;;;2.08;;
75847;SDS011;65750;47.540;19.090;2023-02-28T10:58:02;5.05;;;2.40;;
75847;SDS011;65750;47.540;19.090;2023-02-28T11:00:32;4.50;;;2.13;;
75847;SDS011;65750;47.540;19.090;2023-02-28T11:03:00;4.53;;;2.45;;
75847;SDS011;65750;47.540;19.090;2023-02-28T11:05:29;7.37;;;2.65;;
75847;SDS011;65750;47.540;19.090;2023-02-28T11:07:59;5.57;;;2.33;;
75847;SDS011;65750;47.540;19.090;2023-02-28T11:10:31;4.62;;;2.42;;
75847;SDS011;65750;47.540;19.090;2023-02-28T11:13:00;4.87;;;2.20;;
75847;SDS011;65750;47.540;19.090;2023-02-28T11:15:29;4.18;;;2.47;;
75847;SDS011;65750;47.540;19.090;2023-02-28T11:17:59;4.50;;;2.30;;
75847;SDS011;65750;47.540;19.090;2023-02-28T11:20:29;4.47;;;1.95;;
75847;SDS011;65750;47.540;19.090;2023-02-28T11:22:57;4.20;;;2.00;;
75847;SDS011;65750;47.540;19.090;2023-02-28T11:25:26;3.73;;;2.10;;
75847;SDS011;65750;47.540;19.090;2023-02-28T11:27:57;4.72;;;2.28;;
75847;SDS011;65750;47.540;19.090;2023-02-28T11:30:30;5.70;;;2.80;;
75847;SDS011;65750;47.540;19.090;2023-02-28T11:33:00;4.28;;;2.15;;
75847;SDS011;65750;47.540;19.090;2023-02-28T11:35:36;5.40;;;2.20;;
75847;SDS011;65750;47.540;19.090;2023-02-28T11:38:05;4.43;;;2.30;;
75847;SDS011;65750;47.540;19.090;2023-02-28T11:40:37;7.28;;;2.72;;
75847;SDS011;65750;47.540;19.090;2023-02-28T11:43:13;6.70;;;2.40;;
75847;SDS011;65750;47.540;19.090;2023-02-28T11:45:51;5.22;;;2.50;;
75847;SDS011;65750;47.540;19.090;2023-02-28T11:48:26;4.78;;;2.42;;
75847;SDS011;65750;47.540;19.090;2023-02-28T11:51:00;5.23;;;2.37;;
75847;SDS011;65750;47.540;19.090;2023-02-28T11:53:36;5.40;;;2.65;;
75847;SDS011;65750;47.540;19.090;2023-02-28T11:56:11;20.02;;;5.03;;
75847;SDS011;65750;47.540;19.090;2023-02-28T11:58:43;19.80;;;4.72;;
75847;SDS011;65750;47.540;19.090;2023-02-28T12:01:20;21.30;;;5.62;;
75847;SDS011;65750;47.540;19.090;2023-02-28T12:03:57;25.87;;;5.20;;
75847;SDS011;65750;47.540;19.090;2023-02-28T12:06:32;15.48;;;4.40;;
75847;SDS011;65750;47.540;19.090;2023-02-28T12:09:03;23.05;;;4.50;;
75847;SDS011;65750;47.540;19.090;2023-02-28T12:11:41;14.65;;;4.62;;
75847;SDS011;65750;47.540;19.090;2023-02-28T12:14:20;14.82;;;4.62;;
75847;SDS011;65750;47.540;19.090;2023-02-28T12:17:00;23.67;;;3.80;;
75847;SDS011;65750;47.540;19.090;2023-02-28T12:19:35;13.65;;;4.60;;
75847;SDS011;65750;47.540;19.090;2023-02-28T12:22:28;14.57;;;3.83;;
75847;SDS011;65750;47.540;19.090;2023-02-28T12:25:13;13.13;;;4.07;;
75847;SDS011;65750;47.540;19.090;2023-02-28T12:27:51;12.15;;;4.10;;
75847;SDS011;65750;47.540;19.090;2023-02-28T12:30:21;15.80;;;4.67;;
75847;SDS011;65750;47.540;19.090;2023-02-28T12:32:51;14.52;;;3.90;;
75847;SDS011;65750;47.540;19.090;2023-02-28T12:35:24;13.07;;;4.15;;
75847;SDS011;65750;47.540;19.090;2023-02-28T12:37:56;11.32;;;3.60;;
75847;SDS011;65750;47.540;19.090;2023-02-28T12:40:27;9.73;;;3.78;;
75847;SDS011;65750;47.540;19.090;2023-02-28T12:42:56;13.97;;;3.97;;
75847;SDS011;65750;47.540;19.090;2023-02-28T12:45:25;12.30;;;3.55;;
75847;SDS011;65750;47.540;19.090;2023-02-28T12:47:57;10.75;;;3.37;;
75847;SDS011;65750;47.540;19.090;2023-02-28T12:50:26;10.52;;;3.45;;
75847;SDS011;65750;47.540;19.090;2023-02-28T12:52:58;10.98;;;3.47;;
75847;SDS011;65750;47.540;19.090;2023-02-28T12:55:29;9.43;;;3.50;;
75847;SDS011;65750;47.540;19.090;2023-02-28T12:58:05;11.12;;;3.37;;
75847;SDS011;65750;47.540;19.090;2023-02-28T13:00:38;8.88;;;3.35;;
75847;SDS011;65750;47.540;19.090;2023-02-28T13:06:20;10.85;;;3.37;;
75847;SDS011;65750;47.540;19.090;2023-02-28T13:09:02;8.90;;;3.40;;
75847;SDS011;65750;47.540;19.090;2023-02-28T13:11:32;8.93;;;3.55;;
75847;SDS011;65750;47.540;19.090;2023-02-28T13:14:01;11.15;;;3.42;;
75847;SDS011;65750;47.540;19.090;2023-02-28T13:19:17;8.18;;;2.95;;
75847;SDS011;65750;47.540;19.090;2023-02-28T13:21:45;6.83;;;2.80;;
75847;SDS011;65750;47.540;19.090;2023-02-28T13:24:36;7.22;;;2.87;;
75847;SDS011;65750;47.540;19.090;2023-02-28T13:27:19;9.60;;;3.35;;
75847;SDS011;65750;47.540;19.090;2023-02-28T13:29:51;12.48;;;3.30;;
75847;SDS011;65750;47.540;19.090;2023-02-28T13:32:29;9.05;;;2.97;;
75847;SDS011;65750;47.540;19.090;2023-02-28T13:38:16;7.57;;;2.67;;
75847;SDS011;65750;47.540;19.090;2023-02-28T13:44:20;7.47;;;2.67;;
75847;SDS011;65750;47.540;19.090;2023-02-28T13:49:50;6.67;;;2.60;;
75847;SDS011;65750;47.540;19.090;2023-02-28T13:52:19;7.47;;;2.62;;
75847;SDS011;65750;47.540;19.090;2023-02-28T13:54:56;6.95;;;2.72;;
75847;SDS011;65750;47.540;19.090;2023-02-28T13:57:33;5.65;;;2.80;;
75847;SDS011;65750;47.540;19.090;2023-02-28T14:00:15;5.47;;;2.40;;
75847;SDS011;65750;47.540;19.090;2023-02-28T14:02:52;6.60;;;2.87;;
75847;SDS011;65750;47.540;19.090;2023-02-28T14:05:40;4.43;;;2.35;;
75847;SDS011;65750;47.540;19.090;2023-02-28T14:08:11;6.57;;;2.40;;
75847;SDS011;65750;47.540;19.090;2023-02-28T14:10:42;6.35;;;2.60;;
75847;SDS011;65750;47.540;19.090;2023-02-28T14:13:13;6.22;;;2.62;;
75847;SDS011;65750;47.540;19.090;2023-02-28T14:15:57;5.97;;;2.73;;
75847;SDS011;65750;47.540;19.090;2023-02-28T14:18:27;6.12;;;3.00;;
75847;SDS011;65750;47.540;19.090;2023-02-28T14:21:09;5.25;;;2.37;;
75847;SDS011;65750;47.540;19.090;2023-02-28T14:23:41;6.68;;;2.70;;
75847;SDS011;65750;47.540;19.090;2023-02-28T14:26:25;5.68;;;2.47;;
75847;SDS011;65750;47.540;19.090;2023-02-28T14:29:02;5.53;;;2.60;;
75847;SDS011;65750;47.540;19.090;2023-02-28T14:31:42;5.10;;;2.35;;
75847;SDS011;65750;47.540;19.090;2023-02-28T14:34:24;5.15;;;2.50;;
75847;SDS011;65750;47.540;19.090;2023-02-28T14:36:58;5.28;;;2.20;;
75847;SDS011;65750;47.540;19.090;2023-02-28T14:39:27;5.85;;;2.35;;
75847;SDS011;65750;47.540;19.090;2023-02-28T14:41:56;6.20;;;2.37;;
75847;SDS011;65750;47.540;19.090;2023-02-28T14:44:28;4.75;;;2.60;;
75847;SDS011;65750;47.540;19.090;2023-02-28T14:46:59;6.18;;;2.62;;
75847;SDS011;65750;47.540;19.090;2023-02-28T14:49:30;4.82;;;2.35;;
75847;SDS011;65750;47.540;19.090;2023-02-28T14:52:03;4.65;;;2.22;;
75847;SDS011;65750;47.540;19.090;2023-02-28T14:54:35;5.53;;;2.30;;
75847;SDS011;65750;47.540;19.090;2023-02-28T14:57:02;5.68;;;2.40;;
75847;SDS011;65750;47.540;19.090;2023-02-28T14:59:30;3.42;;;1.87;;
75847;SDS011;65750;47.540;19.090;2023-02-28T15:02:19;5.10;;;2.60;;
75847;SDS011;65750;47.540;19.090;2023-02-28T15:04:52;5.32;;;2.90;;
75847;SDS011;65750;47.540;19.090;2023-02-28T15:07:21;5.73;;;2.53;;
75847;SDS011;65750;47.540;19.090;2023-02-28T15:10:16;6.12;;;2.33;;
75847;SDS011;65750;47.540;19.090;2023-02-28T15:12:46;6.10;;;2.92;;